sensor_id;sensor_type;location;lat;lon;timestamp;P1;durP1;ratioP1;P2;durP2;ratioP2
9467;SDS011;4772;52.382;9.752;2023-06-22T00:01:52;12.77;;;11.67;;
9467;SDS011;4772;52.382;9.752;2023-06-22T00:04:18;13.17;;;12.00;;
9467;SDS011;4772;52.382;9.752;2023-06-22T00:06:44;14.00;;;12.80;;
9467;SDS011;4772;52.382;9.752;2023-06-22T00:09:10;14.23;;;12.90;;
9467;SDS011;4772;52.382;9.752;2023-06-22T00:11:36;14.73;;;13.00;;
9467;SDS011;4772;52.382;9.752;2023-06-22T00:14:03;15.07;;;13.77;;
9467;SDS011;4772;52.382;9.752;2023-06-22T00:16:29;15.57;;;14.17;;
9467;SDS011;4772;52.382;9.752;2023-06-22T00:18:55;16.03;;;14.43;;
9467;SDS011;4772;52.382;9.752;2023-06-22T00:21:23;15.53;;;14.07;;
9467;SDS011;4772;52.382;9.752;2023-06-22T00:23:49;15.57;;;14.27;;
9467;SDS011;4772;52.382;9.752;2023-06-22T00:26:15;15.23;;;13.93;;
9467;SDS011;4772;52.382;9.752;2023-06-22T00:28:42;15.80;;;14.40;;
9467;SDS011;4772;52.382;9.752;2023-06-22T00:31:08;15.37;;;14.17;;
9467;SDS011;4772;52.382;9.752;2023-06-22T00:33:34;15.13;;;13.90;;
9467;SDS011;4772;52.382;9.752;2023-06-22T00:35:59;15.17;;;13.63;;
9467;SDS011;4772;52.382;9.752;2023-06-22T00:38:28;15.73;;;14.07;;
9467;SDS011;4772;52.382;9.752;2023-06-22T00:40:53;16.13;;;14.63;;
9467;SDS011;4772;52.382;9.752;2023-06-22T00:43:20;15.87;;;14.30;;
9467;SDS011;4772;52.382;9.752;2023-06-22T00:45:46;15.23;;;13.97;;
9467;SDS011;4772;52.382;9.752;2023-06-22T00:48:12;15.67;;;14.17;;
9467;SDS011;4772;52.382;9.752;2023-06-22T00:50:39;15.57;;;14.17;;
9467;SDS011;4772;52.382;9.752;2023-06-22T00:53:06;15.73;;;14.37;;
9467;SDS011;4772;52.382;9.752;2023-06-22T00:55:36;15.67;;;14.23;;
9467;SDS011;4772;52.382;9.752;2023-06-22T00:58:02;16.50;;;15.00;;
9467;SDS011;4772;52.382;9.752;2023-06-22T01:00:30;15.70;;;14.30;;
9467;SDS011;4772;52.382;9.752;2023-06-22T01:02:57;14.73;;;13.57;;
9467;SDS011;4772;52.382;9.752;2023-06-22T01:05:23;14.90;;;13.60;;
9467;SDS011;4772;52.382;9.752;2023-06-22T01:07:53;15.10;;;13.77;;
9467;SDS011;4772;52.382;9.752;2023-06-22T01:10:24;14.23;;;13.03;;
9467;SDS011;4772;52.382;9.752;2023-06-22T01:12:53;14.60;;;13.30;;
9467;SDS011;4772;52.382;9.752;2023-06-22T01:15:23;14.40;;;13.20;;
9467;SDS011;4772;52.382;9.752;2023-06-22T01:17:50;15.03;;;13.53;;
9467;SDS011;4772;52.382;9.752;2023-06-22T01:20:18;14.70;;;13.40;;
9467;SDS011;4772;52.382;9.752;2023-06-22T01:22:55;15.03;;;13.73;;
9467;SDS011;4772;52.382;9.752;2023-06-22T01:25:26;14.00;;;12.87;;
9467;SDS011;4772;52.382;9.752;2023-06-22T01:30:40;14.43;;;13.03;;
9467;SDS011;4772;52.382;9.752;2023-06-22T01:33:07;14.50;;;13.20;;
9467;SDS011;4772;52.382;9.752;2023-06-22T01:35:36;14.00;;;12.80;;
9467;SDS011;4772;52.382;9.752;2023-06-22T01:38:02;14.43;;;13.13;;
9467;SDS011;4772;52.382;9.752;2023-06-22T01:40:28;14.70;;;13.37;;
9467;SDS011;4772;52.382;9.752;2023-06-22T01:42:55;14.30;;;13.00;;
9467;SDS011;4772;52.382;9.752;2023-06-22T01:45:21;13.17;;;12.07;;
9467;SDS011;4772;52.382;9.752;2023-06-22T01:47:47;13.60;;;12.43;;
9467;SDS011;4772;52.382;9.752;2023-06-22T01:50:14;14.63;;;13.33;;
9467;SDS011;4772;52.382;9.752;2023-06-22T01:52:40;14.00;;;12.63;;
9467;SDS011;4772;52.382;9.752;2023-06-22T01:55:06;13.63;;;12.43;;
9467;SDS011;4772;52.382;9.752;2023-06-22T01:57:33;14.27;;;13.07;;
9467;SDS011;4772;52.382;9.752;2023-06-22T02:00:00;14.20;;;13.00;;
9467;SDS011;4772;52.382;9.752;2023-06-22T02:02:27;13.97;;;12.70;;
9467;SDS011;4772;52.382;9.752;2023-06-22T02:04:56;13.33;;;12.13;;
9467;SDS011;4772;52.382;9.752;2023-06-22T02:07:23;13.50;;;12.17;;
9467;SDS011;4772;52.382;9.752;2023-06-22T02:09:50;12.73;;;11.53;;
9467;SDS011;4772;52.382;9.752;2023-06-22T02:12:17;13.87;;;12.63;;
9467;SDS011;4772;52.382;9.752;2023-06-22T02:14:44;12.73;;;11.57;;
9467;SDS011;4772;52.382;9.752;2023-06-22T02:17:11;13.87;;;12.57;;
9467;SDS011;4772;52.382;9.752;2023-06-22T02:19:37;13.30;;;12.10;;
9467;SDS011;4772;52.382;9.752;2023-06-22T02:22:04;12.60;;;11.57;;
9467;SDS011;4772;52.382;9.752;2023-06-22T02:24:30;13.23;;;12.03;;
9467;SDS011;4772;52.382;9.752;2023-06-22T02:27:00;13.17;;;12.07;;
9467;SDS011;4772;52.382;9.752;2023-06-22T02:29:27;12.97;;;11.77;;
9467;SDS011;4772;52.382;9.752;2023-06-22T02:31:53;13.50;;;12.20;;
9467;SDS011;4772;52.382;9.752;2023-06-22T02:34:20;12.87;;;11.57;;
9467;SDS011;4772;52.382;9.752;2023-06-22T02:36:47;13.43;;;12.07;;
9467;SDS011;4772;52.382;9.752;2023-06-22T02:39:23;13.00;;;11.90;;
9467;SDS011;4772;52.382;9.752;2023-06-22T02:41:53;13.13;;;11.93;;
9467;SDS011;4772;52.382;9.752;2023-06-22T02:44:19;13.13;;;12.03;;
9467;SDS011;4772;52.382;9.752;2023-06-22T02:46:46;13.53;;;12.23;;
9467;SDS011;4772;52.382;9.752;2023-06-22T02:49:12;14.00;;;12.60;;
9467;SDS011;4772;52.382;9.752;2023-06-22T02:51:39;14.03;;;12.77;;
9467;SDS011;4772;52.382;9.752;2023-06-22T02:54:06;13.37;;;12.17;;
9467;SDS011;4772;52.382;9.752;2023-06-22T02:56:31;13.10;;;11.90;;
9467;SDS011;4772;52.382;9.752;2023-06-22T02:58:58;13.90;;;12.70;;
9467;SDS011;4772;52.382;9.752;2023-06-22T03:01:27;13.87;;;12.60;;
9467;SDS011;4772;52.382;9.752;2023-06-22T03:03:55;13.10;;;12.00;;
9467;SDS011;4772;52.382;9.752;2023-06-22T03:06:21;13.93;;;12.73;;
9467;SDS011;4772;52.382;9.752;2023-06-22T03:08:48;13.53;;;12.23;;
9467;SDS011;4772;52.382;9.752;2023-06-22T03:11:14;13.93;;;12.70;;
9467;SDS011;4772;52.382;9.752;2023-06-22T03:13:40;13.93;;;12.63;;
9467;SDS011;4772;52.382;9.752;2023-06-22T03:16:06;12.90;;;11.70;;
9467;SDS011;4772;52.382;9.752;2023-06-22T03:18:31;14.10;;;12.80;;
9467;SDS011;4772;52.382;9.752;2023-06-22T03:20:57;13.50;;;12.20;;
9467;SDS011;4772;52.382;9.752;2023-06-22T03:23:24;12.77;;;11.67;;
9467;SDS011;4772;52.382;9.752;2023-06-22T03:25:50;13.30;;;12.00;;
9467;SDS011;4772;52.382;9.752;2023-06-22T03:28:16;12.47;;;11.37;;
9467;SDS011;4772;52.382;9.752;2023-06-22T03:30:42;13.07;;;11.93;;
9467;SDS011;4772;52.382;9.752;2023-06-22T03:33:08;11.90;;;10.80;;
9467;SDS011;4772;52.382;9.752;2023-06-22T03:35:34;12.50;;;11.30;;
9467;SDS011;4772;52.382;9.752;2023-06-22T03:38:00;11.33;;;10.43;;
9467;SDS011;4772;52.382;9.752;2023-06-22T03:40:26;12.60;;;11.03;;
9467;SDS011;4772;52.382;9.752;2023-06-22T03:42:53;12.73;;;11.73;;
9467;SDS011;4772;52.382;9.752;2023-06-22T03:45:19;13.60;;;12.20;;
9467;SDS011;4772;52.382;9.752;2023-06-22T03:47:44;12.67;;;11.37;;
9467;SDS011;4772;52.382;9.752;2023-06-22T03:50:10;12.77;;;11.67;;
9467;SDS011;4772;52.382;9.752;2023-06-22T03:52:37;13.20;;;11.93;;
9467;SDS011;4772;52.382;9.752;2023-06-22T03:55:03;13.07;;;11.73;;
9467;SDS011;4772;52.382;9.752;2023-06-22T03:57:29;14.47;;;11.90;;
9467;SDS011;4772;52.382;9.752;2023-06-22T03:59:56;14.10;;;12.57;;
9467;SDS011;4772;52.382;9.752;2023-06-22T04:02:22;13.87;;;12.53;;
9467;SDS011;4772;52.382;9.752;2023-06-22T04:04:48;12.83;;;11.37;;
9467;SDS011;4772;52.382;9.752;2023-06-22T04:07:14;13.80;;;11.83;;
9467;SDS011;4772;52.382;9.752;2023-06-22T04:09:40;13.77;;;12.57;;
9467;SDS011;4772;52.382;9.752;2023-06-22T04:12:07;13.67;;;12.47;;
9467;SDS011;4772;52.382;9.752;2023-06-22T04:14:33;12.80;;;11.60;;
9467;SDS011;4772;52.382;9.752;2023-06-22T04:16:59;13.20;;;12.00;;
9467;SDS011;4772;52.382;9.752;2023-06-22T04:19:25;13.77;;;11.77;;
9467;SDS011;4772;52.382;9.752;2023-06-22T04:21:51;12.57;;;11.27;;
9467;SDS011;4772;52.382;9.752;2023-06-22T04:24:17;13.20;;;11.90;;
9467;SDS011;4772;52.382;9.752;2023-06-22T04:26:43;12.90;;;11.60;;
9467;SDS011;4772;52.382;9.752;2023-06-22T04:29:10;12.73;;;11.43;;
9467;SDS011;4772;52.382;9.752;2023-06-22T04:31:36;14.30;;;11.10;;
9467;SDS011;4772;52.382;9.752;2023-06-22T04:34:03;13.40;;;12.00;;
9467;SDS011;4772;52.382;9.752;2023-06-22T04:36:36;13.93;;;11.40;;
9467;SDS011;4772;52.382;9.752;2023-06-22T04:39:06;14.30;;;11.83;;
9467;SDS011;4772;52.382;9.752;2023-06-22T04:41:34;11.73;;;10.60;;
9467;SDS011;4772;52.382;9.752;2023-06-22T04:44:06;12.43;;;10.33;;
9467;SDS011;4772;52.382;9.752;2023-06-22T04:46:32;13.60;;;11.33;;
9467;SDS011;4772;52.382;9.752;2023-06-22T04:49:02;12.00;;;10.90;;
9467;SDS011;4772;52.382;9.752;2023-06-22T04:51:31;12.57;;;11.43;;
9467;SDS011;4772;52.382;9.752;2023-06-22T04:53:57;12.00;;;10.80;;
9467;SDS011;4772;52.382;9.752;2023-06-22T04:56:26;11.10;;;10.20;;
9467;SDS011;4772;52.382;9.752;2023-06-22T04:58:55;12.30;;;10.97;;
9467;SDS011;4772;52.382;9.752;2023-06-22T05:01:22;11.37;;;10.17;;
9467;SDS011;4772;52.382;9.752;2023-06-22T05:03:48;11.77;;;10.57;;
9467;SDS011;4772;52.382;9.752;2023-06-22T05:06:14;11.83;;;10.63;;
9467;SDS011;4772;52.382;9.752;2023-06-22T05:08:40;11.30;;;10.20;;
9467;SDS011;4772;52.382;9.752;2023-06-22T05:11:06;11.53;;;10.33;;
9467;SDS011;4772;52.382;9.752;2023-06-22T05:13:32;11.47;;;9.93;;
9467;SDS011;4772;52.382;9.752;2023-06-22T05:15:58;14.33;;;10.43;;
9467;SDS011;4772;52.382;9.752;2023-06-22T05:18:30;11.57;;;10.57;;
9467;SDS011;4772;52.382;9.752;2023-06-22T05:20:57;11.50;;;10.40;;
9467;SDS011;4772;52.382;9.752;2023-06-22T05:23:24;11.50;;;10.30;;
9467;SDS011;4772;52.382;9.752;2023-06-22T05:25:50;12.83;;;10.00;;
9467;SDS011;4772;52.382;9.752;2023-06-22T05:28:16;10.63;;;9.47;;
9467;SDS011;4772;52.382;9.752;2023-06-22T05:30:47;10.60;;;9.70;;
9467;SDS011;4772;52.382;9.752;2023-06-22T05:33:14;11.23;;;9.20;;
9467;SDS011;4772;52.382;9.752;2023-06-22T05:35:40;11.27;;;9.27;;
9467;SDS011;4772;52.382;9.752;2023-06-22T05:38:06;10.03;;;9.03;;
9467;SDS011;4772;52.382;9.752;2023-06-22T05:40:32;10.53;;;9.43;;
9467;SDS011;4772;52.382;9.752;2023-06-22T05:42:58;10.37;;;9.23;;
9467;SDS011;4772;52.382;9.752;2023-06-22T05:45:26;11.70;;;9.03;;
9467;SDS011;4772;52.382;9.752;2023-06-22T05:47:53;10.90;;;9.80;;
9467;SDS011;4772;52.382;9.752;2023-06-22T05:50:22;16.57;;;9.37;;
9467;SDS011;4772;52.382;9.752;2023-06-22T05:52:48;10.90;;;9.47;;
9467;SDS011;4772;52.382;9.752;2023-06-22T05:55:14;9.90;;;8.90;;
9467;SDS011;4772;52.382;9.752;2023-06-22T05:57:40;11.83;;;8.80;;
9467;SDS011;4772;52.382;9.752;2023-06-22T06:00:06;9.73;;;8.33;;
9467;SDS011;4772;52.382;9.752;2023-06-22T06:02:35;10.47;;;8.00;;
9467;SDS011;4772;52.382;9.752;2023-06-22T06:05:01;11.30;;;8.33;;
9467;SDS011;4772;52.382;9.752;2023-06-22T06:07:28;10.57;;;8.00;;
9467;SDS011;4772;52.382;9.752;2023-06-22T06:09:54;15.00;;;8.37;;
9467;SDS011;4772;52.382;9.752;2023-06-22T06:12:20;13.73;;;8.17;;
9467;SDS011;4772;52.382;9.752;2023-06-22T06:14:46;10.97;;;8.13;;
9467;SDS011;4772;52.382;9.752;2023-06-22T06:17:12;9.60;;;7.67;;
9467;SDS011;4772;52.382;9.752;2023-06-22T06:19:38;10.10;;;8.17;;
9467;SDS011;4772;52.382;9.752;2023-06-22T06:22:04;12.73;;;8.07;;
9467;SDS011;4772;52.382;9.752;2023-06-22T06:24:30;12.83;;;7.97;;
9467;SDS011;4772;52.382;9.752;2023-06-22T06:26:56;9.97;;;7.30;;
9467;SDS011;4772;52.382;9.752;2023-06-22T06:29:22;14.60;;;8.63;;
9467;SDS011;4772;52.382;9.752;2023-06-22T06:31:48;14.30;;;9.07;;
9467;SDS011;4772;52.382;9.752;2023-06-22T06:34:14;12.50;;;8.00;;
9467;SDS011;4772;52.382;9.752;2023-06-22T06:36:40;10.37;;;7.77;;
9467;SDS011;4772;52.382;9.752;2023-06-22T06:39:07;9.23;;;7.17;;
9467;SDS011;4772;52.382;9.752;2023-06-22T06:41:33;9.33;;;6.47;;
9467;SDS011;4772;52.382;9.752;2023-06-22T06:43:59;8.00;;;6.68;;
9467;SDS011;4772;52.382;9.752;2023-06-22T06:46:25;9.07;;;6.10;;
9467;SDS011;4772;52.382;9.752;2023-06-22T06:48:51;9.97;;;6.77;;
9467;SDS011;4772;52.382;9.752;2023-06-22T06:51:17;10.18;;;6.25;;
9467;SDS011;4772;52.382;9.752;2023-06-22T06:53:43;7.20;;;6.45;;
9467;SDS011;4772;52.382;9.752;2023-06-22T06:56:09;8.20;;;6.60;;
9467;SDS011;4772;52.382;9.752;2023-06-22T06:58:35;10.23;;;6.50;;
9467;SDS011;4772;52.382;9.752;2023-06-22T07:01:02;9.40;;;6.85;;
9467;SDS011;4772;52.382;9.752;2023-06-22T07:03:28;8.13;;;6.88;;
9467;SDS011;4772;52.382;9.752;2023-06-22T07:05:54;11.35;;;7.50;;
9467;SDS011;4772;52.382;9.752;2023-06-22T07:08:20;12.00;;;6.80;;
9467;SDS011;4772;52.382;9.752;2023-06-22T07:10:46;9.13;;;7.03;;
9467;SDS011;4772;52.382;9.752;2023-06-22T07:13:12;10.10;;;7.53;;
9467;SDS011;4772;52.382;9.752;2023-06-22T07:15:38;9.77;;;7.30;;
9467;SDS011;4772;52.382;9.752;2023-06-22T07:18:04;9.82;;;6.95;;
9467;SDS011;4772;52.382;9.752;2023-06-22T07:20:30;9.35;;;7.43;;
9467;SDS011;4772;52.382;9.752;2023-06-22T07:22:56;8.30;;;6.90;;
9467;SDS011;4772;52.382;9.752;2023-06-22T07:25:23;11.45;;;7.63;;
9467;SDS011;4772;52.382;9.752;2023-06-22T07:27:59;8.57;;;6.25;;
9467;SDS011;4772;52.382;9.752;2023-06-22T07:30:28;9.80;;;7.00;;
9467;SDS011;4772;52.382;9.752;2023-06-22T07:32:54;10.05;;;7.47;;
9467;SDS011;4772;52.382;9.752;2023-06-22T07:35:20;8.73;;;7.00;;
9467;SDS011;4772;52.382;9.752;2023-06-22T07:37:46;8.05;;;7.35;;
9467;SDS011;4772;52.382;9.752;2023-06-22T07:40:12;8.30;;;7.47;;
9467;SDS011;4772;52.382;9.752;2023-06-22T07:42:38;7.90;;;7.10;;
9467;SDS011;4772;52.382;9.752;2023-06-22T07:45:04;11.07;;;7.57;;
9467;SDS011;4772;52.382;9.752;2023-06-22T07:47:33;7.88;;;7.07;;
9467;SDS011;4772;52.382;9.752;2023-06-22T07:50:00;8.05;;;7.28;;
9467;SDS011;4772;52.382;9.752;2023-06-22T07:52:27;8.45;;;6.75;;
9467;SDS011;4772;52.382;9.752;2023-06-22T07:54:53;8.02;;;7.28;;
9467;SDS011;4772;52.382;9.752;2023-06-22T07:57:19;7.65;;;6.85;;
9467;SDS011;4772;52.382;9.752;2023-06-22T07:59:45;8.60;;;7.10;;
9467;SDS011;4772;52.382;9.752;2023-06-22T08:02:11;9.20;;;7.03;;
9467;SDS011;4772;52.382;9.752;2023-06-22T08:04:37;7.40;;;6.75;;
9467;SDS011;4772;52.382;9.752;2023-06-22T08:07:03;7.93;;;6.75;;
9467;SDS011;4772;52.382;9.752;2023-06-22T08:09:30;10.63;;;6.53;;
9467;SDS011;4772;52.382;9.752;2023-06-22T08:11:56;7.32;;;6.63;;
9467;SDS011;4772;52.382;9.752;2023-06-22T08:14:23;8.70;;;7.70;;
9467;SDS011;4772;52.382;9.752;2023-06-22T08:16:50;8.95;;;6.57;;
9467;SDS011;4772;52.382;9.752;2023-06-22T08:19:16;9.63;;;7.00;;
9467;SDS011;4772;52.382;9.752;2023-06-22T08:21:42;9.77;;;7.75;;
9467;SDS011;4772;52.382;9.752;2023-06-22T08:24:08;8.80;;;7.30;;
9467;SDS011;4772;52.382;9.752;2023-06-22T08:26:34;9.57;;;8.50;;
9467;SDS011;4772;52.382;9.752;2023-06-22T08:29:02;9.30;;;7.95;;
9467;SDS011;4772;52.382;9.752;2023-06-22T08:31:30;9.23;;;8.20;;
9467;SDS011;4772;52.382;9.752;2023-06-22T08:33:59;9.63;;;8.27;;
9467;SDS011;4772;52.382;9.752;2023-06-22T08:36:25;8.98;;;7.68;;
9467;SDS011;4772;52.382;9.752;2023-06-22T08:38:55;10.52;;;7.60;;
9467;SDS011;4772;52.382;9.752;2023-06-22T08:41:26;7.90;;;7.10;;
9467;SDS011;4772;52.382;9.752;2023-06-22T08:43:52;9.35;;;7.50;;
9467;SDS011;4772;52.382;9.752;2023-06-22T08:46:18;8.40;;;7.47;;
9467;SDS011;4772;52.382;9.752;2023-06-22T08:48:48;10.32;;;7.63;;
9467;SDS011;4772;52.382;9.752;2023-06-22T08:51:14;9.32;;;8.38;;
9467;SDS011;4772;52.382;9.752;2023-06-22T08:53:40;8.90;;;7.97;;
9467;SDS011;4772;52.382;9.752;2023-06-22T08:56:06;10.43;;;7.78;;
9467;SDS011;4772;52.382;9.752;2023-06-22T08:58:32;9.35;;;8.55;;
9467;SDS011;4772;52.382;9.752;2023-06-22T09:00:58;8.27;;;7.35;;
9467;SDS011;4772;52.382;9.752;2023-06-22T09:03:26;8.77;;;7.97;;
9467;SDS011;4772;52.382;9.752;2023-06-22T09:05:52;10.52;;;8.45;;
9467;SDS011;4772;52.382;9.752;2023-06-22T09:08:18;9.95;;;8.95;;
9467;SDS011;4772;52.382;9.752;2023-06-22T09:10:44;10.20;;;9.02;;
9467;SDS011;4772;52.382;9.752;2023-06-22T09:13:10;11.88;;;8.73;;
9467;SDS011;4772;52.382;9.752;2023-06-22T09:15:36;9.93;;;8.85;;
9467;SDS011;4772;52.382;9.752;2023-06-22T09:18:02;9.68;;;8.68;;
9467;SDS011;4772;52.382;9.752;2023-06-22T09:20:28;9.40;;;7.90;;
9467;SDS011;4772;52.382;9.752;2023-06-22T09:22:54;9.10;;;8.20;;
9467;SDS011;4772;52.382;9.752;2023-06-22T09:25:20;9.13;;;8.23;;
9467;SDS011;4772;52.382;9.752;2023-06-22T09:27:47;12.75;;;8.70;;
9467;SDS011;4772;52.382;9.752;2023-06-22T09:30:13;10.50;;;9.00;;
9467;SDS011;4772;52.382;9.752;2023-06-22T09:32:40;10.68;;;9.38;;
9467;SDS011;4772;52.382;9.752;2023-06-22T09:35:07;12.65;;;11.35;;
9467;SDS011;4772;52.382;9.752;2023-06-22T09:37:34;13.30;;;12.00;;
9467;SDS011;4772;52.382;9.752;2023-06-22T09:40:00;13.07;;;11.98;;
9467;SDS011;4772;52.382;9.752;2023-06-22T09:42:29;13.27;;;11.52;;
9467;SDS011;4772;52.382;9.752;2023-06-22T09:44:55;11.07;;;9.98;;
9467;SDS011;4772;52.382;9.752;2023-06-22T09:47:21;12.50;;;11.18;;
9467;SDS011;4772;52.382;9.752;2023-06-22T09:49:47;14.68;;;12.15;;
9467;SDS011;4772;52.382;9.752;2023-06-22T09:52:13;12.73;;;10.50;;
9467;SDS011;4772;52.382;9.752;2023-06-22T09:54:39;11.68;;;10.48;;
9467;SDS011;4772;52.382;9.752;2023-06-22T09:57:05;13.70;;;12.10;;
9467;SDS011;4772;52.382;9.752;2023-06-22T09:59:31;12.25;;;11.02;;
9467;SDS011;4772;52.382;9.752;2023-06-22T10:01:57;13.55;;;10.90;;
9467;SDS011;4772;52.382;9.752;2023-06-22T10:04:23;14.82;;;11.00;;
9467;SDS011;4772;52.382;9.752;2023-06-22T10:06:50;12.88;;;11.77;;
9467;SDS011;4772;52.382;9.752;2023-06-22T10:09:16;12.32;;;11.00;;
9467;SDS011;4772;52.382;9.752;2023-06-22T10:11:42;14.68;;;13.23;;
9467;SDS011;4772;52.382;9.752;2023-06-22T10:14:08;13.35;;;12.05;;
9467;SDS011;4772;52.382;9.752;2023-06-22T10:16:36;16.08;;;12.55;;
9467;SDS011;4772;52.382;9.752;2023-06-22T10:19:02;13.13;;;11.45;;
9467;SDS011;4772;52.382;9.752;2023-06-22T10:21:28;17.08;;;12.23;;
9467;SDS011;4772;52.382;9.752;2023-06-22T10:23:54;13.75;;;11.98;;
9467;SDS011;4772;52.382;9.752;2023-06-22T10:26:20;11.82;;;10.73;;
9467;SDS011;4772;52.382;9.752;2023-06-22T10:28:46;14.80;;;12.00;;
9467;SDS011;4772;52.382;9.752;2023-06-22T10:31:12;16.80;;;11.90;;
9467;SDS011;4772;52.382;9.752;2023-06-22T10:33:39;11.65;;;10.45;;
9467;SDS011;4772;52.382;9.752;2023-06-22T10:36:06;12.80;;;11.23;;
9467;SDS011;4772;52.382;9.752;2023-06-22T10:38:32;12.20;;;10.38;;
9467;SDS011;4772;52.382;9.752;2023-06-22T10:40:58;12.63;;;11.32;;
9467;SDS011;4772;52.382;9.752;2023-06-22T10:43:24;14.75;;;11.48;;
9467;SDS011;4772;52.382;9.752;2023-06-22T10:45:50;12.60;;;11.13;;
9467;SDS011;4772;52.382;9.752;2023-06-22T10:48:16;16.85;;;11.57;;
9467;SDS011;4772;52.382;9.752;2023-06-22T10:50:42;11.88;;;10.68;;
9467;SDS011;4772;52.382;9.752;2023-06-22T10:53:08;16.00;;;12.68;;
9467;SDS011;4772;52.382;9.752;2023-06-22T10:55:34;14.75;;;12.55;;
9467;SDS011;4772;52.382;9.752;2023-06-22T10:58:00;14.45;;;12.63;;
9467;SDS011;4772;52.382;9.752;2023-06-22T11:00:26;14.65;;;12.15;;
9467;SDS011;4772;52.382;9.752;2023-06-22T11:02:52;13.80;;;12.52;;
9467;SDS011;4772;52.382;9.752;2023-06-22T11:05:18;14.07;;;12.68;;
9467;SDS011;4772;52.382;9.752;2023-06-22T11:07:44;14.20;;;11.10;;
9467;SDS011;4772;52.382;9.752;2023-06-22T11:10:10;15.13;;;11.80;;
9467;SDS011;4772;52.382;9.752;2023-06-22T11:12:36;12.70;;;11.60;;
9467;SDS011;4772;52.382;9.752;2023-06-22T11:15:02;12.15;;;10.95;;
9467;SDS011;4772;52.382;9.752;2023-06-22T11:17:29;12.15;;;10.93;;
9467;SDS011;4772;52.382;9.752;2023-06-22T11:19:55;12.75;;;11.50;;
9467;SDS011;4772;52.382;9.752;2023-06-22T11:22:21;13.32;;;12.02;;
9467;SDS011;4772;52.382;9.752;2023-06-22T11:24:46;13.73;;;12.07;;
9467;SDS011;4772;52.382;9.752;2023-06-22T11:27:13;13.85;;;11.70;;
9467;SDS011;4772;52.382;9.752;2023-06-22T11:29:39;14.57;;;12.23;;
9467;SDS011;4772;52.382;9.752;2023-06-22T11:32:06;14.15;;;12.75;;
9467;SDS011;4772;52.382;9.752;2023-06-22T11:34:32;12.57;;;11.27;;
9467;SDS011;4772;52.382;9.752;2023-06-22T11:36:58;21.00;;;11.77;;
9467;SDS011;4772;52.382;9.752;2023-06-22T11:39:24;12.77;;;11.48;;
9467;SDS011;4772;52.382;9.752;2023-06-22T11:41:50;13.40;;;12.07;;
9467;SDS011;4772;52.382;9.752;2023-06-22T11:44:16;15.20;;;11.32;;
9467;SDS011;4772;52.382;9.752;2023-06-22T11:46:42;12.55;;;11.40;;
9467;SDS011;4772;52.382;9.752;2023-06-22T11:49:08;11.98;;;10.88;;
9467;SDS011;4772;52.382;9.752;2023-06-22T11:51:34;13.77;;;11.05;;
9467;SDS011;4772;52.382;9.752;2023-06-22T11:54:00;13.32;;;12.07;;
9467;SDS011;4772;52.382;9.752;2023-06-22T11:56:27;13.52;;;11.38;;
9467;SDS011;4772;52.382;9.752;2023-06-22T11:58:53;13.25;;;11.65;;
9467;SDS011;4772;52.382;9.752;2023-06-22T12:01:19;15.70;;;11.38;;
9467;SDS011;4772;52.382;9.752;2023-06-22T12:03:46;12.45;;;11.20;;
9467;SDS011;4772;52.382;9.752;2023-06-22T12:06:13;12.60;;;11.48;;
9467;SDS011;4772;52.382;9.752;2023-06-22T12:08:39;12.10;;;10.98;;
9467;SDS011;4772;52.382;9.752;2023-06-22T12:11:05;11.68;;;10.57;;
9467;SDS011;4772;52.382;9.752;2023-06-22T12:13:31;12.18;;;11.00;;
9467;SDS011;4772;52.382;9.752;2023-06-22T12:15:57;10.98;;;9.98;;
9467;SDS011;4772;52.382;9.752;2023-06-22T12:18:23;10.90;;;9.80;;
9467;SDS011;4772;52.382;9.752;2023-06-22T12:20:49;11.95;;;10.70;;
9467;SDS011;4772;52.382;9.752;2023-06-22T12:23:15;12.77;;;11.70;;
9467;SDS011;4772;52.382;9.752;2023-06-22T12:25:41;17.52;;;11.60;;
9467;SDS011;4772;52.382;9.752;2023-06-22T12:28:07;11.38;;;10.48;;
9467;SDS011;4772;52.382;9.752;2023-06-22T12:30:33;11.98;;;10.82;;
9467;SDS011;4772;52.382;9.752;2023-06-22T12:32:59;11.05;;;10.05;;
9467;SDS011;4772;52.382;9.752;2023-06-22T12:35:25;11.43;;;10.38;;
9467;SDS011;4772;52.382;9.752;2023-06-22T12:37:51;10.52;;;9.48;;
9467;SDS011;4772;52.382;9.752;2023-06-22T12:40:17;11.88;;;9.90;;
9467;SDS011;4772;52.382;9.752;2023-06-22T12:42:44;10.43;;;9.43;;
9467;SDS011;4772;52.382;9.752;2023-06-22T12:45:10;10.93;;;9.93;;
9467;SDS011;4772;52.382;9.752;2023-06-22T12:47:36;10.68;;;9.68;;
9467;SDS011;4772;52.382;9.752;2023-06-22T12:50:02;11.15;;;10.05;;
9467;SDS011;4772;52.382;9.752;2023-06-22T12:52:30;11.55;;;10.32;;
9467;SDS011;4772;52.382;9.752;2023-06-22T12:54:57;10.93;;;10.05;;
9467;SDS011;4772;52.382;9.752;2023-06-22T12:57:23;12.40;;;11.30;;
9467;SDS011;4772;52.382;9.752;2023-06-22T12:59:49;12.10;;;10.90;;
9467;SDS011;4772;52.382;9.752;2023-06-22T13:02:15;13.23;;;11.80;;
9467;SDS011;4772;52.382;9.752;2023-06-22T13:04:41;13.73;;;10.95;;
9467;SDS011;4772;52.382;9.752;2023-06-22T13:07:08;13.40;;;12.30;;
9467;SDS011;4772;52.382;9.752;2023-06-22T13:09:35;13.45;;;11.88;;
9467;SDS011;4772;52.382;9.752;2023-06-22T13:12:01;12.68;;;11.38;;
9467;SDS011;4772;52.382;9.752;2023-06-22T13:14:27;12.68;;;11.43;;
9467;SDS011;4772;52.382;9.752;2023-06-22T13:16:53;12.07;;;10.98;;
9467;SDS011;4772;52.382;9.752;2023-06-22T13:19:19;12.65;;;11.57;;
9467;SDS011;4772;52.382;9.752;2023-06-22T13:21:45;12.35;;;11.07;;
9467;SDS011;4772;52.382;9.752;2023-06-22T13:24:11;11.75;;;10.65;;
9467;SDS011;4772;52.382;9.752;2023-06-22T13:26:37;12.30;;;11.10;;
9467;SDS011;4772;52.382;9.752;2023-06-22T13:29:04;12.70;;;11.45;;
9467;SDS011;4772;52.382;9.752;2023-06-22T13:31:30;13.48;;;12.20;;
9467;SDS011;4772;52.382;9.752;2023-06-22T13:33:56;13.18;;;11.85;;
9467;SDS011;4772;52.382;9.752;2023-06-22T13:36:21;13.20;;;12.00;;
9467;SDS011;4772;52.382;9.752;2023-06-22T13:38:48;14.07;;;12.40;;
9467;SDS011;4772;52.382;9.752;2023-06-22T13:41:14;12.57;;;11.38;;
9467;SDS011;4772;52.382;9.752;2023-06-22T13:43:40;13.15;;;11.88;;
9467;SDS011;4772;52.382;9.752;2023-06-22T13:46:06;12.45;;;11.45;;
9467;SDS011;4772;52.382;9.752;2023-06-22T13:48:32;12.57;;;11.48;;
9467;SDS011;4772;52.382;9.752;2023-06-22T13:50:58;12.40;;;11.30;;
9467;SDS011;4772;52.382;9.752;2023-06-22T13:53:24;13.27;;;11.90;;
9467;SDS011;4772;52.382;9.752;2023-06-22T13:55:51;13.13;;;11.38;;
9467;SDS011;4772;52.382;9.752;2023-06-22T13:58:17;12.35;;;11.35;;
9467;SDS011;4772;52.382;9.752;2023-06-22T14:00:44;13.32;;;12.02;;
9467;SDS011;4772;52.382;9.752;2023-06-22T14:03:10;14.00;;;12.45;;
9467;SDS011;4772;52.382;9.752;2023-06-22T14:05:37;13.93;;;12.57;;
9467;SDS011;4772;52.382;9.752;2023-06-22T14:08:03;13.23;;;12.13;;
9467;SDS011;4772;52.382;9.752;2023-06-22T14:10:29;13.40;;;12.18;;
9467;SDS011;4772;52.382;9.752;2023-06-22T14:12:55;13.10;;;11.90;;
9467;SDS011;4772;52.382;9.752;2023-06-22T14:15:21;14.15;;;13.05;;
9467;SDS011;4772;52.382;9.752;2023-06-22T14:17:47;15.45;;;13.73;;
9467;SDS011;4772;52.382;9.752;2023-06-22T14:20:13;15.23;;;14.00;;
9467;SDS011;4772;52.382;9.752;2023-06-22T14:22:39;15.43;;;14.13;;
9467;SDS011;4772;52.382;9.752;2023-06-22T14:25:05;15.75;;;14.18;;
9467;SDS011;4772;52.382;9.752;2023-06-22T14:27:31;15.68;;;14.27;;
9467;SDS011;4772;52.382;9.752;2023-06-22T14:29:57;16.15;;;14.75;;
9467;SDS011;4772;52.382;9.752;2023-06-22T14:32:23;16.40;;;14.80;;
9467;SDS011;4772;52.382;9.752;2023-06-22T14:34:50;16.10;;;14.50;;
9467;SDS011;4772;52.382;9.752;2023-06-22T14:37:16;15.60;;;14.20;;
9467;SDS011;4772;52.382;9.752;2023-06-22T14:39:42;15.32;;;13.93;;
9467;SDS011;4772;52.382;9.752;2023-06-22T14:42:08;14.07;;;12.98;;
9467;SDS011;4772;52.382;9.752;2023-06-22T14:44:34;15.27;;;13.98;;
9467;SDS011;4772;52.382;9.752;2023-06-22T14:47:00;14.20;;;12.82;;
9467;SDS011;4772;52.382;9.752;2023-06-22T14:49:26;14.10;;;12.85;;
9467;SDS011;4772;52.382;9.752;2023-06-22T14:51:52;14.55;;;13.23;;